Bedford, MA (01730)

11:39 AM EDT on September 22, 2014 (GMT -0400)
Old Depot Area | Change Station
CLOSE
Current Station
Personal Weather Station
Location: Bedford, MA
Elevation: 130 ft
Nearby Weather Stations

Elev 130 ft 42.49 °N, 71.28 °W | Updated 0 second ago

Mostly Cloudy
Mostly Cloudy
69.5 °F
Feels Like 69.5 °F
N
4.0
Wind Variable Wind from North
Gusts 4.0 mph

Today
High -- | Low -- °F
--% Chance of Precip.
Yesterday
High -- | Low -- °F
Precip. -- in
6:32 AM 6:42 PM
Waning Crescent, 2% visible
Pressure 29.75 in
Visibility 10.0 miles
Clouds Mostly Cloudy 4200 ft
Dew Point 56 °F
Humidity 62%
Rainfall 0.00 in
Snow Depth Not available.
UV 3 out of 12
Pollen 4.10 out of 12
Air Quality Not available.
Flu Activity Not available.
METAR KBED 221456Z 28013G23KT 10SM BKN042 20/11 A2972 RMK AO2 SLP075 T02000106 51021

More Conditions Fewer Conditions

Pressure 29.75 in
Visibility 10.0 miles
Clouds Mostly Cloudy 4200 ft
Dew Point 56 °F
Humidity 62%
Rainfall 0.00 in
Snow Depth Not available.
UV 3 out of 12
Pollen 4.10 out of 12
Air Quality Not available.
Flu Activity Not available.
METAR KBED 221456Z 28013G23KT 10SM BKN042 20/11 A2972 RMK AO2 SLP075 T02000106 51021

More Conditions Fewer Conditions

10-Day Weather Forecast

Almanac

Astronomy

Sep. 22, 2014 Rise Set
Actual Time 6:32 AM EDT 6:42 PM EDT
Civil Twilight 6:04 AM EDT 7:10 PM EDT
Nautical Twilight 5:31 AM EDT 7:43 PM EDT
Astronomical Twilight 4:57 AM EDT 8:16 PM EDT
Moon 4:56 AM EDT 5:49 PM EDT
Length of Visible Light 13h 06m
Length of Day
12h 10m
Tomorrow will be 2m 51s shorter.
Waning Crescent, 2% of the Moon is Illuminated
Today
Waning Crescent
Sep 24
New
Oct 1
First Quarter
Oct 8
Full
Oct 15
Last Quarter

Today's Extremes

State Highs State Lows

Community

WunderPhotos

Upload Photos

1,755,464 photos uploaded!

Nearby

Air Quality

  Air Quality AQ Index Pollutant
Monday Good
PM2.5
Monday Good
OZONE

Snow Depth

Station Depth Elevation
No new snow has been reported.

Earthquake Activity

City Distance Mag. Time & Date
No recent earthquake activity has been reported nearby.
Minimum magnitude displayed is 2.5.

Coastal Water Temperatures

Place Temperature
Boston, MA 63.0 °F
Providence, RI 68.0 °F
Fall River, MA 70.0 °F
Conimicut Light, RI 68.0 °F

Nearby Weather Stations